createdAt,value
2023-05-19T00:00:33.326Z,99351.19
2023-05-19T00:03:21.750Z,99355.75
2023-05-19T00:05:50.632Z,99350.23
2023-05-19T00:08:18.376Z,99349.45
2023-05-19T00:10:46.630Z,99347.39
2023-05-19T00:13:14.681Z,99348.02
2023-05-19T00:15:42.996Z,99339.97
2023-05-19T00:18:14.277Z,99340.19
2023-05-19T00:20:42.551Z,99335.11
2023-05-19T00:23:10.992Z,99334.67
2023-05-19T00:25:38.843Z,99329.58
2023-05-19T00:28:06.526Z,99334.93
2023-05-19T00:30:34.350Z,99334.46
2023-05-19T00:33:02.601Z,99333.73
2023-05-19T00:35:30.461Z,99331.86
2023-05-19T00:37:58.321Z,99331.92
2023-05-19T00:40:26.191Z,99330.53
2023-05-19T00:42:53.924Z,99331.92
2023-05-19T00:45:21.794Z,99332.95
2023-05-19T00:47:49.670Z,99335.71
2023-05-19T00:50:17.409Z,99337.61
2023-05-19T00:52:45.044Z,99333.23
2023-05-19T00:55:14.365Z,99333.43
2023-05-19T00:57:42.618Z,99331.24
2023-05-19T01:00:11.417Z,99327.89
2023-05-19T01:02:40.213Z,99327.28
2023-05-19T01:05:08.650Z,99325.23
2023-05-19T01:07:36.955Z,99322.89
2023-05-19T01:10:05.239Z,99315.48
2023-05-19T01:12:32.909Z,99309.48
2023-05-19T01:15:01.272Z,99308.15
2023-05-19T01:17:51.289Z,99309.23
2023-05-19T01:20:36.326Z,99306.40
2023-05-19T01:23:17.997Z,99306.98
2023-05-19T01:26:38.522Z,99305.77
2023-05-19T01:29:24.682Z,99305.80
2023-05-19T01:31:52.374Z,99304.35
2023-05-19T01:34:20.461Z,99304.63
2023-05-19T01:36:49.337Z,99301.92
2023-05-19T01:39:17.041Z,99302.38
2023-05-19T01:41:44.682Z,99299.95
2023-05-19T01:44:12.353Z,99302.23
2023-05-19T01:46:40.049Z,99301.26
2023-05-19T01:49:07.907Z,99294.98
2023-05-19T01:51:35.841Z,99288.52
2023-05-19T01:54:03.611Z,99288.77
2023-05-19T01:56:41.475Z,99285.52
2023-05-19T01:59:16.987Z,99284.67
2023-05-19T02:01:54.070Z,99287.58
2023-05-19T02:04:45.241Z,99289.88
2023-05-19T02:07:22.445Z,99286.52
2023-05-19T02:09:59.414Z,99277.50
2023-05-19T02:12:35.788Z,99272.06
2023-05-19T02:15:10.822Z,99275.46
2023-05-19T02:17:41.649Z,99274.18
2023-05-19T02:20:10.337Z,99274.77
2023-05-19T02:22:38.135Z,99272.84
2023-05-19T02:25:06.271Z,99276.75
2023-05-19T02:27:34.989Z,99267.65
2023-05-19T02:30:06.443Z,99264.77
2023-05-19T02:32:34.524Z,99265.65
2023-05-19T02:35:02.850Z,99268.39
2023-05-19T02:37:31.243Z,99264.67
2023-05-19T02:39:59.302Z,99265.63
2023-05-19T02:42:26.961Z,99259.60
2023-05-19T02:44:55.446Z,99256.46
2023-05-19T02:47:23.373Z,99256.20
2023-05-19T02:49:51.061Z,99253.17
2023-05-19T02:52:18.761Z,99249.70
2023-05-19T02:54:46.747Z,99248.12
2023-05-19T02:57:14.398Z,99250.54
2023-05-19T02:59:42.965Z,99258.49
2023-05-19T03:02:11.596Z,99263.59
2023-05-19T03:04:42.802Z,99265.52
2023-05-19T03:07:10.665Z,99268.28
2023-05-19T03:09:38.423Z,99274.26
2023-05-19T03:12:07.700Z,99270.25
2023-05-19T03:14:38.575Z,99281.33
2023-05-19T03:17:10.330Z,99279.08
2023-05-19T03:19:38.218Z,99282.06
2023-05-19T03:22:06.792Z,99283.98
2023-05-19T03:24:34.796Z,99284.34
2023-05-19T03:27:02.785Z,99285.53
2023-05-19T03:29:31.015Z,99276.82
2023-05-19T03:31:59.905Z,99273.40
2023-05-19T03:34:27.666Z,99275.11
2023-05-19T03:36:55.304Z,99276.98
2023-05-19T03:39:23.638Z,99283.14
2023-05-19T03:41:51.435Z,99285.42
2023-05-19T03:44:19.201Z,99283.89
2023-05-19T03:46:47.064Z,99279.69
2023-05-19T03:49:15.142Z,99277.20
2023-05-19T03:51:43.234Z,99277.02
2023-05-19T03:54:11.259Z,99279.77
2023-05-19T03:56:39.377Z,99280.98
2023-05-19T03:59:07.331Z,99283.16
2023-05-19T04:01:36.500Z,99279.41
2023-05-19T04:04:04.438Z,99281.42
2023-05-19T04:06:32.169Z,99282.88
2023-05-19T04:09:02.391Z,99279.56
2023-05-19T04:11:30.050Z,99281.48
2023-05-19T04:13:57.706Z,99286.83
2023-05-19T04:16:25.985Z,99284.21
2023-05-19T04:18:53.839Z,99277.45
2023-05-19T04:21:22.432Z,99276.58
2023-05-19T04:23:50.445Z,99282.02
2023-05-19T04:26:19.292Z,99287.77
2023-05-19T04:28:48.338Z,99294.64
2023-05-19T04:31:16.182Z,99298.00
2023-05-19T04:33:43.913Z,99291.64
2023-05-19T04:36:13.768Z,99289.91
2023-05-19T04:38:41.969Z,99285.84
2023-05-19T04:41:11.070Z,99286.80
2023-05-19T04:43:42.076Z,99286.61
2023-05-19T04:46:13.367Z,99283.25
2023-05-19T04:48:41.495Z,99279.86
2023-05-19T04:51:09.451Z,99279.95
2023-05-19T04:53:37.367Z,99283.23
2023-05-19T04:56:05.432Z,99283.44
2023-05-19T04:58:33.303Z,99284.50
2023-05-19T05:01:01.432Z,99282.16
2023-05-19T05:03:30.952Z,99283.45
2023-05-19T05:05:58.747Z,99284.17
2023-05-19T05:08:27.390Z,99283.89
2023-05-19T05:10:55.738Z,99287.27
2023-05-19T05:13:24.074Z,99287.69
2023-05-19T05:15:52.360Z,99294.86
2023-05-19T05:18:20.788Z,99301.67
2023-05-19T05:20:48.844Z,99301.11
2023-05-19T05:23:16.951Z,99299.96
2023-05-19T05:25:45.312Z,99294.94
2023-05-19T05:28:13.187Z,99300.36
2023-05-19T05:30:41.667Z,99297.49
2023-05-19T05:33:09.580Z,99299.23
2023-05-19T05:35:37.496Z,99297.98
2023-05-19T05:38:05.533Z,99295.17
2023-05-19T05:40:33.328Z,99294.20
2023-05-19T05:43:00.975Z,99292.88
2023-05-19T05:45:28.710Z,99291.39
2023-05-19T05:47:56.823Z,99295.33
2023-05-19T05:50:25.416Z,99294.96
2023-05-19T05:52:53.340Z,99300.02
2023-05-19T05:55:21.697Z,99297.55
2023-05-19T05:57:50.638Z,99293.05
2023-05-19T06:00:19.422Z,99297.48
2023-05-19T06:02:47.542Z,99293.49
2023-05-19T06:05:15.393Z,99293.73
2023-05-19T06:07:43.512Z,99291.79
2023-05-19T06:10:11.438Z,99290.07
2023-05-19T06:12:40.795Z,99289.03
2023-05-19T06:15:10.217Z,99291.03
2023-05-19T06:17:37.949Z,99297.56
2023-05-19T06:20:06.664Z,99304.76
2023-05-19T06:22:34.584Z,99308.14
2023-05-19T06:25:02.227Z,99314.60
2023-05-19T06:27:30.828Z,99317.27
2023-05-19T06:30:00.191Z,99322.79
2023-05-19T06:32:29.726Z,99324.64
2023-05-19T06:34:57.527Z,99315.42
2023-05-19T06:37:25.740Z,99319.02
2023-05-19T06:39:53.708Z,99318.62
2023-05-19T06:42:25.323Z,99318.55
2023-05-19T06:44:53.444Z,99316.04
2023-05-19T06:47:21.209Z,99314.89
2023-05-19T06:49:55.487Z,99314.25
2023-05-19T06:52:24.404Z,99311.50
2023-05-19T06:54:52.428Z,99309.40
2023-05-19T06:57:20.051Z,99306.24
2023-05-19T06:59:47.917Z,99308.10
2023-05-19T07:02:15.677Z,99311.88
2023-05-19T07:04:43.646Z,99312.34
2023-05-19T07:07:11.557Z,99310.85
2023-05-19T07:09:39.475Z,99311.63
2023-05-19T07:12:07.407Z,99306.80
2023-05-19T07:14:36.501Z,99304.92
2023-05-19T07:17:04.712Z,99301.36
2023-05-19T07:19:32.399Z,99297.30
2023-05-19T07:22:00.780Z,99296.38
2023-05-19T07:24:28.732Z,99290.29
2023-05-19T07:26:56.549Z,99295.27
2023-05-19T07:29:24.472Z,99296.08
2023-05-19T07:31:54.333Z,99297.06
2023-05-19T07:34:22.117Z,99298.62
2023-05-19T07:36:50.301Z,99297.54
2023-05-19T07:39:18.352Z,99301.48
2023-05-19T07:41:52.641Z,99299.84
2023-05-19T07:44:20.511Z,99301.84
2023-05-19T07:46:48.182Z,99305.20
2023-05-19T07:49:15.925Z,99305.19
2023-05-19T07:51:43.900Z,99301.00
2023-05-19T07:54:11.534Z,99298.63
2023-05-19T07:56:39.350Z,99301.65
2023-05-19T07:59:08.085Z,99303.27
2023-05-19T08:01:35.939Z,99305.17
2023-05-19T08:04:03.821Z,99306.37
2023-05-19T08:06:31.898Z,99307.77
2023-05-19T08:08:59.688Z,99306.55
2023-05-19T08:11:27.385Z,99308.88
2023-05-19T08:13:55.246Z,99309.16
2023-05-19T08:16:23.122Z,99319.61
2023-05-19T08:18:51.126Z,99309.83
2023-05-19T08:21:19.367Z,99315.80
2023-05-19T08:23:47.146Z,99314.23
2023-05-19T08:26:14.869Z,99310.71
2023-05-19T08:28:44.335Z,99314.17
2023-05-19T08:31:12.371Z,99322.73
2023-05-19T08:33:40.182Z,99323.43
2023-05-19T08:36:08.129Z,99324.67
2023-05-19T08:38:35.773Z,99327.40
2023-05-19T08:41:03.634Z,99321.31
2023-05-19T08:43:31.604Z,99325.21
2023-05-19T08:45:59.688Z,99323.67
2023-05-19T08:48:29.548Z,99325.66
2023-05-19T08:51:06.664Z,99316.91
2023-05-19T08:53:37.047Z,99319.23
2023-05-19T08:56:11.118Z,99314.15
2023-05-19T08:58:39.816Z,99313.45
2023-05-19T09:01:08.047Z,99315.45
2023-05-19T09:03:39.382Z,99320.56
2023-05-19T09:06:08.714Z,99316.89
2023-05-19T09:08:37.330Z,99309.87
2023-05-19T09:11:05.026Z,99307.63
2023-05-19T09:13:32.692Z,99306.95
2023-05-19T09:16:00.829Z,99313.13
2023-05-19T09:18:28.534Z,99314.18
2023-05-19T09:20:59.748Z,99315.23
2023-05-19T09:23:29.707Z,99318.59
2023-05-19T09:25:57.534Z,99318.15
2023-05-19T09:28:29.614Z,99314.54
2023-05-19T09:31:01.215Z,99313.70
2023-05-19T09:33:30.060Z,99313.59
2023-05-19T09:35:57.969Z,99316.09
2023-05-19T09:38:26.959Z,99314.73
2023-05-19T09:40:58.377Z,99315.79
2023-05-19T09:43:34.319Z,99317.23
2023-05-19T09:46:10.662Z,99315.84
2023-05-19T09:48:39.920Z,99317.63
2023-05-19T09:51:10.247Z,99317.52
2023-05-19T09:53:39.151Z,99317.77
2023-05-19T09:56:07.354Z,99317.66
2023-05-19T09:58:35.643Z,99319.24
2023-05-19T10:01:04.175Z,99321.86
2023-05-19T10:03:35.228Z,99322.90
2023-05-19T10:06:04.355Z,99321.63
2023-05-19T10:08:33.547Z,99317.91
2023-05-19T10:11:01.283Z,99317.89
2023-05-19T10:13:29.505Z,99313.65
2023-05-19T10:15:59.303Z,99315.73
2023-05-19T10:18:29.697Z,99312.23
2023-05-19T10:20:58.294Z,99312.31
2023-05-19T10:23:26.500Z,99309.21
2023-05-19T10:25:56.434Z,99301.19
2023-05-19T10:28:26.674Z,99307.23
2023-05-19T10:30:56.652Z,99302.16
2023-05-19T10:33:43.262Z,99302.17
2023-05-19T10:36:24.428Z,99303.94
2023-05-19T10:39:06.390Z,99300.96
2023-05-19T10:42:07.451Z,99305.23
2023-05-19T10:44:46.421Z,99303.02
2023-05-19T10:47:14.293Z,99296.94
2023-05-19T10:49:42.297Z,99291.55
2023-05-19T10:52:25.982Z,99292.34
2023-05-19T10:54:54.911Z,99295.39
2023-05-19T10:57:31.952Z,99296.46
2023-05-19T11:00:08.650Z,99297.56
2023-05-19T11:02:41.294Z,99296.17
2023-05-19T11:05:18.208Z,99300.43
2023-05-19T11:07:56.167Z,99293.04
2023-05-19T11:10:24.376Z,99292.53
2023-05-19T11:12:52.279Z,99292.38
2023-05-19T11:15:20.511Z,99290.45
2023-05-19T11:17:48.831Z,99289.58
2023-05-19T11:20:24.163Z,99289.95
2023-05-19T11:23:08.829Z,99291.05
2023-05-19T11:25:53.936Z,99288.42
2023-05-19T11:28:26.760Z,99286.36
2023-05-19T11:30:55.118Z,99290.11
2023-05-19T11:33:27.278Z,99293.32
2023-05-19T11:35:58.617Z,99292.43
2023-05-19T11:38:28.524Z,99292.80
2023-05-19T11:40:56.643Z,99294.58
2023-05-19T11:43:25.227Z,99293.87
2023-05-19T11:45:56.420Z,99292.81
2023-05-19T11:48:24.828Z,99293.48
2023-05-19T11:50:52.639Z,99294.32
2023-05-19T11:53:21.092Z,99291.30
2023-05-19T11:55:49.659Z,99290.13
2023-05-19T11:58:17.753Z,99287.68
2023-05-19T12:00:47.935Z,99284.69
2023-05-19T12:03:17.536Z,99284.34
2023-05-19T12:05:47.168Z,99283.31
2023-05-19T12:08:17.598Z,99289.15
2023-05-19T12:10:47.807Z,99291.63
2023-05-19T12:13:15.756Z,99292.36
2023-05-19T12:15:43.900Z,99292.71
2023-05-19T12:18:11.693Z,99292.53
2023-05-19T12:20:39.467Z,99287.42
2023-05-19T12:23:07.724Z,99286.72
2023-05-19T12:25:35.700Z,99280.20
2023-05-19T12:28:04.559Z,99280.39
2023-05-19T12:30:33.595Z,99280.02
2023-05-19T12:33:02.656Z,99275.11
2023-05-19T12:35:33.364Z,99274.22
2023-05-19T12:38:05.711Z,99275.99
2023-05-19T12:40:35.418Z,99272.83
2023-05-19T12:43:04.446Z,99270.52
2023-05-19T12:45:39.911Z,99269.45
2023-05-19T12:48:16.244Z,99270.70
2023-05-19T12:50:45.025Z,99269.98
2023-05-19T12:53:13.827Z,99272.98
2023-05-19T12:55:44.910Z,99275.82
2023-05-19T12:58:12.691Z,99271.22
2023-05-19T13:00:50.529Z,99272.30
2023-05-19T13:03:22.311Z,99270.70
2023-05-19T13:05:51.152Z,99270.88
2023-05-19T13:08:24.066Z,99273.36
2023-05-19T13:10:52.312Z,99272.83
2023-05-19T13:13:19.974Z,99272.99
2023-05-19T13:15:50.504Z,99267.34
2023-05-19T13:18:18.657Z,99270.34
2023-05-19T13:20:47.101Z,99271.58
2023-05-19T13:23:15.624Z,99271.05
2023-05-19T13:25:43.639Z,99268.93
2023-05-19T13:28:11.311Z,99273.17
2023-05-19T13:30:40.446Z,99268.92
2023-05-19T13:33:08.748Z,99268.41
2023-05-19T13:35:39.332Z,99264.34
2023-05-19T13:38:09.160Z,99262.59
2023-05-19T13:40:36.939Z,99265.41
2023-05-19T13:43:04.697Z,99265.23
2023-05-19T13:45:32.403Z,99263.65
2023-05-19T13:48:00.231Z,99259.77
2023-05-19T13:50:29.389Z,99258.34
2023-05-19T13:52:57.195Z,99256.42
2023-05-19T13:55:27.289Z,99252.89
2023-05-19T13:57:55.035Z,99252.55
2023-05-19T14:00:24.055Z,99250.77
2023-05-19T14:02:51.961Z,99250.06
2023-05-19T14:05:19.900Z,99249.89
2023-05-19T14:07:47.575Z,99244.96
2023-05-19T14:10:15.700Z,99246.00
2023-05-19T14:13:08.047Z,99246.89
2023-05-19T14:15:34.525Z,99250.93
2023-05-19T14:18:02.795Z,99250.77
2023-05-19T14:20:32.879Z,99254.11
2023-05-19T14:23:00.763Z,99251.46
2023-05-19T14:25:28.398Z,99252.69
2023-05-19T14:27:56.622Z,99259.91
2023-05-19T14:30:24.410Z,99260.11
2023-05-19T14:32:52.122Z,99260.80
2023-05-19T14:35:20.875Z,99262.23
2023-05-19T14:37:48.518Z,99263.46
2023-05-19T14:40:16.618Z,99264.33
2023-05-19T14:42:44.310Z,99267.52
2023-05-19T14:45:12.225Z,99264.67
2023-05-19T14:47:40.567Z,99263.45
2023-05-19T14:50:08.442Z,99272.94
2023-05-19T14:52:36.056Z,99271.18
2023-05-19T14:55:04.125Z,99272.60
2023-05-19T14:57:32.271Z,99276.66
2023-05-19T14:59:59.950Z,99276.29
2023-05-19T15:02:29.546Z,99274.52
2023-05-19T15:04:57.627Z,99274.52
2023-05-19T15:07:25.470Z,99276.61
2023-05-19T15:09:53.586Z,99274.32
2023-05-19T15:12:21.609Z,99275.39
2023-05-19T15:14:49.427Z,99274.69
2023-05-19T15:17:17.177Z,99271.17
2023-05-19T15:19:45.070Z,99271.51
2023-05-19T15:22:12.734Z,99267.61
2023-05-19T15:24:41.329Z,99263.90
2023-05-19T15:27:09.268Z,99262.12
2023-05-19T15:29:37.016Z,99264.76
2023-05-19T15:32:05.032Z,99262.46
2023-05-19T15:34:32.913Z,99255.95
2023-05-19T15:37:00.710Z,99254.87
2023-05-19T15:39:30.455Z,99254.69
2023-05-19T15:41:58.492Z,99249.38
2023-05-19T15:44:28.863Z,99251.67
2023-05-19T15:46:56.801Z,99253.95
2023-05-19T15:49:25.289Z,99255.17
2023-05-19T15:51:52.948Z,99250.78
2023-05-19T15:54:20.612Z,99255.17
2023-05-19T15:56:48.548Z,99249.89
2023-05-19T15:59:16.177Z,99251.65
2023-05-19T16:01:44.124Z,99249.19
2023-05-19T16:04:12.081Z,99253.39
2023-05-19T16:06:39.786Z,99252.50
2023-05-19T16:09:07.424Z,99254.59
2023-05-19T16:11:35.479Z,99255.44
2023-05-19T16:14:03.098Z,99252.23
2023-05-19T16:16:30.915Z,99252.36
2023-05-19T16:18:59.419Z,99254.27
2023-05-19T16:21:27.174Z,99259.71
2023-05-19T16:23:54.997Z,99259.71
2023-05-19T16:26:22.795Z,99260.39
2023-05-19T16:28:50.454Z,99261.42
2023-05-19T16:31:18.325Z,99262.08
2023-05-19T16:33:46.370Z,99264.51
2023-05-19T16:36:14.038Z,99266.59
2023-05-19T16:38:41.708Z,99265.84
2023-05-19T16:41:12.494Z,99268.07
2023-05-19T16:43:40.446Z,99271.00
2023-05-19T16:46:09.884Z,99274.00
2023-05-19T16:48:37.945Z,99270.61
2023-05-19T16:51:05.713Z,99275.13
2023-05-19T16:53:33.652Z,99275.22
2023-05-19T16:56:02.053Z,99277.23
2023-05-19T16:58:30.927Z,99278.58
2023-05-19T17:00:58.846Z,99282.36
2023-05-19T17:03:26.625Z,99281.04
2023-05-19T17:05:54.414Z,99282.40
2023-05-19T17:08:22.272Z,99280.98
2023-05-19T17:10:50.111Z,99281.66
2023-05-19T17:13:17.763Z,99279.52
2023-05-19T17:15:45.567Z,99279.13
2023-05-19T17:18:13.370Z,99279.95
2023-05-19T17:20:41.666Z,99279.89
2023-05-19T17:23:09.518Z,99278.23
2023-05-19T17:25:37.232Z,99274.31
2023-05-19T17:28:05.010Z,99273.38
2023-05-19T17:30:34.633Z,99277.59
2023-05-19T17:33:03.813Z,99283.35
2023-05-19T17:35:31.676Z,99286.48
2023-05-19T17:38:00.779Z,99288.94
2023-05-19T17:40:28.596Z,99288.19
2023-05-19T17:42:56.289Z,99292.55
2023-05-19T17:45:24.174Z,99289.05
2023-05-19T17:47:52.138Z,99285.72
2023-05-19T17:50:19.907Z,99290.63
2023-05-19T17:52:48.016Z,99289.70
2023-05-19T17:55:15.728Z,99291.96
2023-05-19T17:57:44.402Z,99285.42
2023-05-19T18:00:12.972Z,99287.65
2023-05-19T18:02:41.135Z,99290.08
2023-05-19T18:05:10.071Z,99292.71
2023-05-19T18:07:39.785Z,99291.67
2023-05-19T18:10:09.146Z,99294.68
2023-05-19T18:12:36.813Z,99297.48
2023-05-19T18:15:05.417Z,99299.90
2023-05-19T18:17:33.243Z,99303.51
2023-05-19T18:20:00.974Z,99305.84
2023-05-19T18:22:29.343Z,99308.20
2023-05-19T18:24:57.836Z,99310.46
2023-05-19T18:27:26.790Z,99313.27
2023-05-19T18:29:54.938Z,99318.35
2023-05-19T18:32:22.741Z,99316.52
2023-05-19T18:34:50.584Z,99315.55
2023-05-19T18:37:18.818Z,99318.29
2023-05-19T18:39:46.897Z,99324.02
2023-05-19T18:42:14.628Z,99328.23
2023-05-19T18:44:46.997Z,99328.23
2023-05-19T18:47:14.964Z,99327.67
2023-05-19T18:49:43.016Z,99330.58
2023-05-19T18:52:10.992Z,99336.48
2023-05-19T18:54:44.761Z,99334.64
2023-05-19T18:57:12.873Z,99334.75
2023-05-19T18:59:40.824Z,99332.13
2023-05-19T19:02:08.635Z,99334.55
2023-05-19T19:04:37.136Z,99334.71
2023-05-19T19:07:05.852Z,99337.28
2023-05-19T19:09:33.628Z,99334.56
2023-05-19T19:12:01.714Z,99337.10
2023-05-19T19:14:29.525Z,99339.90
2023-05-19T19:16:57.383Z,99345.67
2023-05-19T19:19:26.393Z,99346.00
2023-05-19T19:21:54.298Z,99345.08
2023-05-19T19:24:21.930Z,99347.47
2023-05-19T19:26:50.379Z,99346.41
2023-05-19T19:29:18.296Z,99343.25
2023-05-19T19:31:46.265Z,99342.33
2023-05-19T19:34:14.282Z,99346.63
2023-05-19T19:36:42.156Z,99344.09
2023-05-19T19:39:09.889Z,99344.91
2023-05-19T19:41:37.958Z,99342.45
2023-05-19T19:44:05.812Z,99339.86
2023-05-19T19:46:33.561Z,99339.36
2023-05-19T19:49:01.592Z,99337.96
2023-05-19T19:51:29.602Z,99338.33
2023-05-19T19:53:58.174Z,99336.20
2023-05-19T19:56:27.749Z,99335.83
2023-05-19T19:58:59.059Z,99337.73
2023-05-19T20:01:27.666Z,99339.32
2023-05-19T20:03:57.175Z,99340.92
2023-05-19T20:06:25.063Z,99334.14
2023-05-19T20:08:52.861Z,99332.02
2023-05-19T20:11:23.029Z,99332.84
2023-05-19T20:13:51.422Z,99335.91
2023-05-19T20:16:19.373Z,99335.73
2023-05-19T20:18:47.244Z,99335.77
2023-05-19T20:21:14.922Z,99335.45
2023-05-19T20:23:42.679Z,99335.73
2023-05-19T20:26:13.372Z,99335.13
2023-05-19T20:28:41.863Z,99335.70
2023-05-19T20:31:09.767Z,99331.45
2023-05-19T20:33:37.789Z,99330.54
2023-05-19T20:36:06.286Z,99333.18
2023-05-19T20:38:34.006Z,99334.48
2023-05-19T20:41:02.323Z,99333.43
2023-05-19T20:43:31.952Z,99334.09
2023-05-19T20:46:01.414Z,99328.61
2023-05-19T20:48:29.748Z,99329.77
2023-05-19T20:50:57.587Z,99327.11
2023-05-19T20:53:25.440Z,99326.60
2023-05-19T20:55:53.445Z,99328.59
2023-05-19T20:58:21.332Z,99325.69
2023-05-19T21:00:54.319Z,99327.66
2023-05-19T21:03:23.448Z,99325.04
2023-05-19T21:05:51.399Z,99320.97
2023-05-19T21:08:19.318Z,99324.06
2023-05-19T21:10:47.637Z,99323.52
2023-05-19T21:13:15.449Z,99327.36
2023-05-19T21:15:43.344Z,99326.33
2023-05-19T21:18:12.044Z,99331.74
2023-05-19T21:20:39.940Z,99331.16
2023-05-19T21:23:07.955Z,99332.54
2023-05-19T21:25:36.148Z,99333.84
2023-05-19T21:28:03.896Z,99338.33
2023-05-19T21:30:32.030Z,99338.84
2023-05-19T21:33:00.149Z,99342.55
2023-05-19T21:35:27.898Z,99339.77
2023-05-19T21:37:56.061Z,99337.96
2023-05-19T21:40:24.152Z,99336.17
2023-05-19T21:42:51.846Z,99334.72
2023-05-19T21:45:19.788Z,99333.98
2023-05-19T21:47:47.718Z,99328.22
2023-05-19T21:50:17.479Z,99329.49
2023-05-19T21:52:45.283Z,99325.38
2023-05-19T21:55:13.296Z,99331.38
2023-05-19T21:57:41.019Z,99329.63
2023-05-19T22:00:13.178Z,99329.08
2023-05-19T22:02:42.003Z,99329.02
2023-05-19T22:05:10.186Z,99321.05
2023-05-19T22:07:38.154Z,99328.05
2023-05-19T22:10:07.092Z,99323.02
2023-05-19T22:12:34.877Z,99319.71
2023-05-19T22:15:03.394Z,99317.79
2023-05-19T22:17:31.845Z,99314.75
2023-05-19T22:19:59.625Z,99312.27
2023-05-19T22:22:27.440Z,99318.66
2023-05-19T22:24:55.375Z,99324.37
2023-05-19T22:27:23.045Z,99328.06
2023-05-19T22:29:50.861Z,99325.47
2023-05-19T22:32:19.588Z,99327.95
2023-05-19T22:34:47.387Z,99333.38
2023-05-19T22:37:15.552Z,99335.80
2023-05-19T22:39:43.749Z,99339.77
2023-05-19T22:42:11.682Z,99338.02
2023-05-19T22:44:39.585Z,99335.88
2023-05-19T22:47:13.277Z,99334.43
2023-05-19T22:49:41.667Z,99331.94
2023-05-19T22:52:10.668Z,99329.95
2023-05-19T22:54:38.569Z,99326.95
2023-05-19T22:57:06.704Z,99327.50
2023-05-19T22:59:35.669Z,99329.71
2023-05-19T23:02:03.507Z,99325.70
2023-05-19T23:04:32.625Z,99323.40
2023-05-19T23:07:00.842Z,99315.52
2023-05-19T23:09:28.949Z,99315.99
2023-05-19T23:11:56.822Z,99313.70
2023-05-19T23:14:26.027Z,99315.35
2023-05-19T23:16:53.746Z,99310.83
2023-05-19T23:19:21.879Z,99313.43
2023-05-19T23:21:50.188Z,99317.38
2023-05-19T23:24:17.868Z,99313.45
2023-05-19T23:26:45.794Z,99311.95
2023-05-19T23:29:14.769Z,99312.80
2023-05-19T23:31:42.596Z,99319.64
2023-05-19T23:34:10.634Z,99314.41
2023-05-19T23:36:38.762Z,99313.00
2023-05-19T23:39:06.392Z,99309.27
2023-05-19T23:41:34.148Z,99310.27
2023-05-19T23:44:02.254Z,99304.25
2023-05-19T23:46:30.274Z,99306.98
2023-05-19T23:48:58.348Z,99299.84
2023-05-19T23:51:26.686Z,99300.33
2023-05-19T23:53:54.321Z,99291.54
2023-05-19T23:56:22.526Z,99298.45
2023-05-19T23:58:50.479Z,99297.52
